Time;durP1;ratioP1;P1;durP2;ratioP2;P2;SDS_P1;SDS_P2;PMS_P1;PMS_P2;Temp;Humidity;BMP_temperature;BMP_pressure;BME280_temperature;BME280_humidity;BME280_pressure;Samples;Min_cycle;Max_cycle;Signal;HPM_P1;HPM_P2
2022/05/17 00:01:06;;;;;;;0.40;0.30;;;;;;;17.95;100.00;95627.06;5113571;28;20474;-56
2022/05/17 00:03:35;;;;;;;0.40;0.20;;;;;;;17.83;100.00;95608.06;5113942;28;20430;-55
2022/05/17 00:06:05;;;;;;;0.50;0.30;;;;;;;17.73;100.00;95601.84;5113519;28;20431;-56
2022/05/17 00:08:34;;;;;;;0.40;0.30;;;;;;;17.98;100.00;95642.53;5113503;28;20516;-56
2022/05/17 00:11:03;;;;;;;0.57;0.57;;;;;;;17.96;100.00;95645.50;5113233;28;20508;-55
2022/05/17 00:13:33;;;;;;;0.50;0.30;;;;;;;17.83;100.00;95643.72;5112619;28;20431;-56
2022/05/17 00:16:02;;;;;;;0.50;0.30;;;;;;;17.78;100.00;95636.59;5112998;28;21087;-56
2022/05/17 00:18:31;;;;;;;0.40;0.20;;;;;;;16.70;100.00;95492.38;5113313;28;20467;-56
2022/05/17 00:20:59;;;;;;;0.53;0.53;;;;;;;17.74;100.00;95632.94;5113195;28;20462;-56
2022/05/17 00:23:28;;;;;;;0.40;0.20;;;;;;;17.70;100.00;95629.31;5113270;28;20423;-56
2022/05/17 00:25:57;;;;;;;0.50;0.30;;;;;;;17.75;100.00;95631.84;5113145;28;20941;-56
2022/05/17 00:28:26;;;;;;;0.40;0.20;;;;;;;17.71;100.00;95628.19;5113363;28;20555;-55
2022/05/17 00:30:56;;;;;;;0.40;0.20;;;;;;;17.67;100.00;95613.03;5113012;28;20474;-56
2022/05/17 00:33:24;;;;;;;0.50;0.40;;;;;;;17.67;100.00;95623.75;5113006;28;20432;-56
2022/05/17 00:35:53;;;;;;;0.50;0.40;;;;;;;17.54;100.00;95598.59;5112703;28;20442;-56
2022/05/17 00:38:21;;;;;;;0.40;0.30;;;;;;;17.68;100.00;95615.38;5112564;28;20438;-56
2022/05/17 00:40:50;;;;;;;0.70;0.60;;;;;;;17.65;100.00;95616.03;5112940;28;20968;-56
2022/05/17 00:44:42;;;;;;;0.40;0.20;;;;;;;17.09;100.00;95535.38;5113555;28;20462;-55
2022/05/17 00:46:31;;;;;;;0.50;0.30;;;;;;;17.56;100.00;95601.75;5112818;28;20443;-56
2022/05/17 00:49:01;;;;;;;0.40;0.20;;;;;;;17.46;100.00;95599.28;5112569;28;21033;-56
2022/05/17 00:51:30;;;;;;;0.40;0.20;;;;;;;17.53;100.00;95620.34;5112926;28;20459;-56
2022/05/17 00:54:04;;;;;;;0.40;0.30;;;;;;;17.12;100.00;95548.16;5112616;28;20901;-56
2022/05/17 00:56:39;;;;;;;0.50;0.40;;;;;;;17.46;100.00;95615.38;5112389;27;20431;-56
2022/05/17 00:59:09;;;;;;;0.60;0.40;;;;;;;16.23;100.00;95438.31;5112109;28;20435;-56
2022/05/17 01:01:39;;;;;;;0.40;0.30;;;;;;;16.98;100.00;95601.75;5112858;28;20852;-56
2022/05/17 01:04:11;;;;;;;0.50;0.30;;;;;;;17.19;100.00;95595.94;5112826;28;20427;-56
2022/05/17 01:06:42;;;;;;;0.40;0.30;;;;;;;17.31;100.00;95609.59;5112760;28;20480;-56
2022/05/17 01:09:12;;;;;;;0.40;0.30;;;;;;;17.29;100.00;95611.78;5112526;28;20507;-56
2022/05/17 01:11:41;;;;;;;0.50;0.37;;;;;;;17.31;100.00;95612.25;5112635;28;20472;-56
2022/05/17 01:16:59;;;;;;;0.40;0.27;;;;;;;17.36;100.00;95612.94;5071686;28;20498;-55
2022/05/17 01:19:28;;;;;;;0.50;0.30;;;;;;;17.26;100.00;95602.47;5071706;28;20425;-56
2022/05/17 01:21:58;;;;;;;0.47;0.30;;;;;;;17.19;100.00;95602.09;5071445;28;21006;-56
2022/05/17 01:24:27;;;;;;;0.40;0.20;;;;;;;17.23;100.00;95599.63;5071414;28;20473;-55
2022/05/17 01:27:03;;;;;;;0.40;0.20;;;;;;;17.25;100.00;95606.25;5071754;28;20487;-56
2022/05/17 01:29:39;;;;;;;0.60;0.30;;;;;;;17.22;100.00;95606.06;5071937;28;20414;-56
2022/05/17 01:32:10;;;;;;;0.40;0.30;;;;;;;16.88;100.00;95580.56;5071474;28;20512;-55
2022/05/17 01:34:39;;;;;;;0.63;0.60;;;;;;;15.82;100.00;95414.34;5071547;28;20529;-55
2022/05/17 01:37:09;;;;;;;0.40;0.20;;;;;;;17.03;100.00;95611.56;5071415;28;20468;-55
2022/05/17 01:39:38;;;;;;;0.40;0.30;;;;;;;16.86;100.00;95577.41;5071535;28;20452;-55
2022/05/17 01:42:08;;;;;;;1.83;0.50;;;;;;;16.99;100.00;95597.22;5071352;28;20986;-60
2022/05/17 01:44:36;;;;;;;0.50;0.30;;;;;;;16.95;100.00;95593.56;5071487;28;20500;-56
2022/05/17 01:47:06;;;;;;;0.63;0.63;;;;;;;16.51;100.00;95594.22;5072473;28;20486;-55
2022/05/17 01:49:34;;;;;;;0.50;0.30;;;;;;;16.35;100.00;95545.56;5075445;28;20500;-55
2022/05/17 01:52:03;;;;;;;0.40;0.20;;;;;;;16.80;100.00;95593.91;5075363;28;20464;-55
2022/05/17 01:54:33;;;;;;;1.17;0.30;;;;;;;16.20;100.00;95521.81;5075638;28;20461;-55
2022/05/17 01:57:02;;;;;;;0.40;0.40;;;;;;;16.27;100.00;95590.94;5075707;28;20488;-55
2022/05/17 01:59:30;;;;;;;0.50;0.37;;;;;;;16.05;100.00;95599.66;5075449;28;20452;-55
2022/05/17 02:01:58;;;;;;;0.40;0.30;;;;;;;16.10;100.00;95604.91;5075424;28;20520;-55
2022/05/17 02:04:27;;;;;;;0.80;0.43;;;;;;;16.24;100.00;95600.34;5075502;28;20428;-55
2022/05/17 02:06:56;;;;;;;0.40;0.20;;;;;;;16.35;100.00;95591.06;5075540;28;20461;-56
2022/05/17 02:09:24;;;;;;;0.40;0.20;;;;;;;16.23;100.00;95598.00;5075595;28;20655;-55
2022/05/17 02:11:54;;;;;;;0.60;0.40;;;;;;;16.02;100.00;95592.22;5075211;28;21022;-55
2022/05/17 02:14:22;;;;;;;0.90;0.73;;;;;;;15.93;100.00;95577.97;5075245;28;20511;-55
2022/05/17 02:16:51;;;;;;;0.40;0.30;;;;;;;16.09;100.00;95594.53;5115987;27;20514;-55
2022/05/17 02:19:20;;;;;;;0.40;0.27;;;;;;;16.08;100.00;95593.72;5115695;28;20422;-55
2022/05/17 02:21:49;;;;;;;0.63;0.57;;;;;;;14.54;100.00;95404.69;5115809;28;20526;-55
2022/05/17 02:24:18;;;;;;;0.73;0.73;;;;;;;15.75;100.00;95589.53;5115862;28;20799;-55
2022/05/17 02:26:47;;;;;;;2.83;0.30;;;;;;;15.92;100.00;95588.94;5115424;28;20470;-55
2022/05/17 02:29:16;;;;;;;0.50;0.30;;;;;;;16.01;100.00;95582.66;5115414;28;20502;-55
2022/05/17 02:31:45;;;;;;;0.40;0.23;;;;;;;16.13;100.00;95590.97;5115348;28;20463;-55
2022/05/17 02:34:13;;;;;;;0.40;0.30;;;;;;;16.12;100.00;95586.69;5115430;28;20435;-55
2022/05/17 02:36:42;;;;;;;0.40;0.20;;;;;;;16.26;100.00;95598.19;5115616;28;20451;-55
2022/05/17 02:39:10;;;;;;;0.50;0.30;;;;;;;16.28;100.00;95600.56;5115431;28;20518;-55
2022/05/17 02:41:38;;;;;;;0.40;0.30;;;;;;;16.12;100.00;95601.94;5115136;28;20461;-54
2022/05/17 02:44:07;;;;;;;0.53;0.33;;;;;;;16.08;100.00;95593.72;5115402;28;21066;-54
2022/05/17 02:46:37;;;;;;;0.40;0.30;;;;;;;16.21;100.00;95598.31;5115104;27;20467;-54
2022/05/17 02:49:07;;;;;;;0.77;0.77;;;;;;;16.14;100.00;95600.56;5115260;28;20549;-54
2022/05/17 02:51:36;;;;;;;0.50;0.30;;;;;;;15.53;100.00;95511.94;5114856;28;21014;-55
2022/05/17 02:54:06;;;;;;;0.40;0.20;;;;;;;16.15;100.00;95604.03;5115047;28;20510;-54
2022/05/17 02:56:35;;;;;;;0.50;0.30;;;;;;;16.19;100.00;95605.81;5115083;28;20688;-55
2022/05/17 02:59:04;;;;;;;0.40;0.30;;;;;;;16.11;100.00;95603.03;5114890;28;20435;-54
2022/05/17 03:01:33;;;;;;;0.60;0.60;;;;;;;16.15;100.00;95609.38;5115331;28;20431;-54
2022/05/17 03:04:03;;;;;;;0.40;0.30;;;;;;;16.06;100.00;95595.91;5114964;28;20420;-54
2022/05/17 03:06:31;;;;;;;0.40;0.27;;;;;;;16.12;100.00;95604.59;5114738;28;20466;-54
2022/05/17 03:08:59;;;;;;;0.40;0.30;;;;;;;16.18;100.00;95609.59;5114121;28;20980;-54
2022/05/17 03:11:28;;;;;;;0.50;0.30;;;;;;;16.13;100.00;95609.69;5114577;28;20510;-54
2022/05/17 03:13:56;;;;;;;0.40;0.30;;;;;;;16.13;100.00;95604.34;5114763;28;20466;-54
2022/05/17 03:16:30;;;;;;;0.40;0.30;;;;;;;15.80;100.00;95603.59;5114509;28;20566;-54
2022/05/17 03:18:58;;;;;;;0.40;0.30;;;;;;;15.78;100.00;95605.00;5114850;28;20442;-54
2022/05/17 03:21:28;;;;;;;0.40;0.30;;;;;;;16.11;100.00;95611.88;5114531;28;20423;-55
2022/05/17 03:23:57;;;;;;;0.43;0.40;;;;;;;16.17;100.00;95605.31;5114778;28;20511;-54
2022/05/17 03:26:25;;;;;;;0.50;0.40;;;;;;;16.20;100.00;95606.59;5114472;28;20510;-54
2022/05/17 03:28:54;;;;;;;0.40;0.30;;;;;;;16.28;100.00;95613.94;5114660;28;20499;-54
2022/05/17 03:31:22;;;;;;;0.50;0.40;;;;;;;16.24;100.00;95605.69;5114756;28;20501;-56
2022/05/17 03:33:51;;;;;;;0.50;0.43;;;;;;;16.31;100.00;95613.34;5114208;28;20456;-54
2022/05/17 03:36:19;;;;;;;2.50;2.40;;;;;;;16.39;100.00;95615.34;5114302;28;20474;-54
2022/05/17 03:38:49;;;;;;;0.40;0.30;;;;;;;16.38;100.00;95614.53;5114294;28;20428;-54
2022/05/17 03:41:18;;;;;;;0.40;0.30;;;;;;;16.37;100.00;95620.16;5114556;28;20506;-54
2022/05/17 03:43:46;;;;;;;0.40;0.30;;;;;;;16.42;100.00;95620.06;5114252;28;20818;-54
2022/05/17 03:46:15;;;;;;;0.40;0.30;;;;;;;15.88;100.00;95576.19;5114318;28;20540;-54
2022/05/17 03:48:43;;;;;;;0.40;0.20;;;;;;;16.32;100.00;95629.09;5113831;28;20467;-54
2022/05/17 03:51:13;;;;;;;0.40;0.30;;;;;;;16.35;100.00;95625.03;5114030;28;20451;-55
2022/05/17 03:53:42;;;;;;;0.40;0.20;;;;;;;16.20;100.00;95630.66;5113884;28;20438;-55
2022/05/17 03:56:12;;;;;;;0.47;0.30;;;;;;;16.26;100.00;95632.16;5113389;28;20455;-55
2022/05/17 03:58:41;;;;;;;0.40;0.30;;;;;;;16.23;100.00;95638.09;5114084;28;20432;-55
2022/05/17 04:01:10;;;;;;;0.40;0.20;;;;;;;16.28;100.00;95641.47;5113768;28;20430;-54
2022/05/17 04:03:40;;;;;;;3.83;0.67;;;;;;;16.37;100.00;95633.53;5113633;28;20427;-55
2022/05/17 04:06:08;;;;;;;0.60;0.30;;;;;;;16.20;100.00;95591.34;5113657;28;20902;-55
2022/05/17 04:08:37;;;;;;;0.40;0.30;;;;;;;16.45;100.00;95616.78;5113722;28;20430;-55
2022/05/17 04:11:05;;;;;;;0.40;0.30;;;;;;;16.49;100.00;95634.63;5113072;28;20527;-54
2022/05/17 04:13:36;;;;;;;0.40;0.20;;;;;;;16.65;100.00;95639.69;5113729;28;20455;-55
2022/05/17 04:16:05;;;;;;;1.33;0.50;;;;;;;16.69;100.00;95630.00;5113226;28;20502;-55
2022/05/17 04:18:34;;;;;;;0.40;0.20;;;;;;;16.41;100.00;95586.41;5113613;28;20431;-54
2022/05/17 04:21:04;;;;;;;0.40;0.30;;;;;;;16.81;100.00;95635.63;5112806;28;20514;-54
2022/05/17 04:23:33;;;;;;;0.40;0.27;;;;;;;16.76;100.00;95633.06;5113755;28;20506;-55
2022/05/17 04:26:02;;;;;;;0.40;0.27;;;;;;;16.98;100.00;95647.28;5113261;28;20511;-55
2022/05/17 04:28:30;;;;;;;0.63;0.40;;;;;;;16.96;100.00;95640.66;5113155;27;20427;-55
2022/05/17 04:31:00;;;;;;;0.73;0.73;;;;;;;17.10;100.00;95633.38;5113100;28;21079;-55
2022/05/17 04:33:29;;;;;;;0.50;0.30;;;;;;;17.14;100.00;95639.72;5113108;28;20489;-55
2022/05/17 04:35:57;;;;;;;0.40;0.30;;;;;;;17.16;100.00;95637.53;5113165;28;20859;-55
2022/05/17 04:38:26;;;;;;;0.50;0.50;;;;;;;17.05;100.00;95641.53;5113183;28;20436;-55
2022/05/17 04:40:54;;;;;;;0.57;0.57;;;;;;;16.82;100.00;95634.53;5112880;28;20519;-55
2022/05/17 04:43:23;;;;;;;0.90;0.77;;;;;;;16.85;100.00;95639.31;5112723;28;20907;-56
2022/05/17 04:45:52;;;;;;;3.27;3.10;;;;;;;16.59;100.00;95635.56;5113120;28;20502;-55
2022/05/17 04:48:24;;;;;;;0.77;0.40;;;;;;;16.75;100.00;95629.59;5112600;28;20527;-55
2022/05/17 04:50:52;;;;;;;0.40;0.30;;;;;;;16.82;100.00;95631.88;5112475;28;20979;-55
2022/05/17 04:53:28;;;;;;;0.60;0.50;;;;;;;16.20;100.00;95630.66;5113033;28;21077;-55
2022/05/17 04:55:56;;;;;;;0.90;0.90;;;;;;;16.29;100.00;95632.34;5112987;28;20419;-55
2022/05/17 04:58:25;;;;;;;1.47;1.47;;;;;;;16.22;100.00;95623.94;5112316;28;20463;-55
2022/05/17 05:00:55;;;;;;;2.10;0.60;;;;;;;16.07;100.00;95589.47;5112920;28;20458;-55
2022/05/17 05:03:25;;;;;;;0.50;0.40;;;;;;;16.28;100.00;95616.63;5112549;27;20517;-56
2022/05/17 05:05:53;;;;;;;0.50;0.50;;;;;;;16.48;100.00;95606.31;5112437;28;20459;-56
2022/05/17 05:08:22;;;;;;;0.60;0.50;;;;;;;16.66;100.00;95622.56;5112443;28;20941;-56
2022/05/17 05:10:55;;;;;;;0.40;0.30;;;;;;;17.20;100.00;95618.97;5112216;27;20479;-56
2022/05/17 05:13:25;;;;;;;0.73;0.73;;;;;;;17.25;100.00;95622.31;5112389;28;20511;-56
2022/05/17 05:15:55;;;;;;;1.20;0.33;;;;;;;17.52;100.00;95598.13;5111944;28;20507;-56
2022/05/17 05:18:25;;;;;;;0.60;0.30;;;;;;;17.57;100.00;95613.28;5112407;28;20411;-56
2022/05/17 05:21:04;;;;;;;1.37;0.73;;;;;;;16.80;100.00;95618.75;5112280;28;20495;-56
2022/05/17 05:23:32;;;;;;;0.70;0.60;;;;;;;15.56;100.00;95455.25;5112034;28;20510;-56
2022/05/17 05:26:02;;;;;;;0.67;0.40;;;;;;;17.33;100.00;95618.13;5112881;28;20467;-55
2022/05/17 05:28:30;;;;;;;1.57;0.80;;;;;;;17.39;100.00;95611.53;5112232;28;20519;-57
2022/05/17 05:30:59;;;;;;;0.60;0.60;;;;;;;17.51;100.00;95590.34;5111929;28;20838;-56
2022/05/17 05:33:30;;;;;;;0.40;0.30;;;;;;;17.91;100.00;95613.47;5112007;28;20519;-56
2022/05/17 05:35:59;;;;;;;0.50;0.50;;;;;;;17.78;100.00;95617.81;5111977;28;20484;-56
2022/05/17 05:38:28;;;;;;;1.00;1.00;;;;;;;18.21;100.00;95622.63;5112066;28;20492;-56
2022/05/17 05:40:57;;;;;;;0.57;0.50;;;;;;;18.60;100.00;95611.88;5114556;28;20447;-55
2022/05/17 05:43:26;;;;;;;0.40;0.30;;;;;;;17.76;100.00;95611.16;5112455;28;20463;-56
2022/05/17 05:45:54;;;;;;;0.50;0.40;;;;;;;17.89;100.00;95610.31;5113590;28;20502;-56
2022/05/17 05:48:23;;;;;;;0.70;0.37;;;;;;;17.84;100.00;95609.63;5112800;28;20483;-56
2022/05/17 05:50:54;;;;;;;0.70;0.50;;;;;;;18.25;100.00;95616.31;5112590;28;20475;-56
2022/05/17 05:53:23;;;;;;;2.40;0.73;;;;;;;18.20;100.00;95615.66;5112791;28;20553;-58
2022/05/17 05:55:57;;;;;;;0.60;0.40;;;;;;;18.49;100.00;95607.91;5112491;28;20877;-57
2022/05/17 05:58:26;;;;;;;0.53;0.53;;;;;;;18.37;100.00;95603.09;5112201;28;20874;-57
2022/05/17 06:00:54;;;;;;;1.03;0.37;;;;;;;18.87;100.00;95606.22;5112706;28;20863;-57
2022/05/17 06:03:23;;;;;;;0.50;0.40;;;;;;;19.35;100.00;95557.75;5112842;28;20432;-57
2022/05/17 06:05:53;;;;;;;0.97;0.70;;;;;;;19.28;100.00;95613.06;5111885;28;20981;-55
2022/05/17 06:08:22;;;;;;;1.00;0.63;;;;;;;20.00;97.64;95608.56;5111532;28;20436;-56
2022/05/17 06:10:50;;;;;;;0.40;0.30;;;;;;;19.82;98.52;95606.22;5111898;28;20503;-57
2022/05/17 06:13:19;;;;;;;0.60;0.50;;;;;;;19.70;99.87;95608.78;5112099;28;20489;-56
2022/05/17 06:15:48;;;;;;;0.60;0.40;;;;;;;19.58;98.57;95602.16;5111726;28;20514;-56
2022/05/17 06:18:17;;;;;;;1.10;0.70;;;;;;;20.39;92.71;95609.41;5112398;28;20427;-55
2022/05/17 06:20:49;;;;;;;0.53;0.50;;;;;;;21.17;86.09;95613.25;5112180;28;20462;-56
2022/05/17 06:23:20;;;;;;;0.40;0.30;;;;;;;21.73;81.67;95598.31;5111760;28;20489;-55
2022/05/17 06:25:49;;;;;;;0.50;0.40;;;;;;;22.29;78.29;95605.63;5111053;28;20502;-55
2022/05/17 06:28:17;;;;;;;1.97;1.13;;;;;;;22.34;73.46;95594.63;5111606;28;20527;-55
2022/05/17 06:30:46;;;;;;;0.70;0.70;;;;;;;21.68;74.82;95599.28;5111559;28;20502;-55
2022/05/17 06:33:16;;;;;;;0.70;0.60;;;;;;;21.37;78.43;95597.06;5112989;28;20427;-55
2022/05/17 06:35:46;;;;;;;2.20;1.70;;;;;;;22.43;73.75;95595.31;5115918;28;20424;-55
2022/05/17 06:38:15;;;;;;;0.53;0.50;;;;;;;22.20;74.41;95599.56;5115107;28;20842;-55
2022/05/17 06:40:45;;;;;;;0.50;0.50;;;;;;;22.62;69.00;95544.22;5115511;28;20912;-55
2022/05/17 06:43:14;;;;;;;0.50;0.43;;;;;;;22.39;68.79;95589.00;5115624;28;20522;-55
2022/05/17 06:45:44;;;;;;;0.90;0.90;;;;;;;22.52;67.31;95566.25;5114856;28;20428;-56
2022/05/17 06:48:12;;;;;;;0.60;0.50;;;;;;;23.45;65.50;95581.47;5115363;28;20435;-54
2022/05/17 06:50:41;;;;;;;0.80;0.40;;;;;;;23.55;61.86;95583.69;5115568;28;20463;-54
2022/05/17 06:53:10;;;;;;;0.80;0.70;;;;;;;23.59;62.67;95576.44;5115101;28;20510;-54
2022/05/17 06:55:39;;;;;;;0.50;0.50;;;;;;;23.69;62.42;95581.34;5115151;28;20924;-54
2022/05/17 06:58:09;;;;;;;0.87;0.87;;;;;;;23.97;64.08;95563.16;5115287;28;20435;-55
2022/05/17 07:00:37;;;;;;;0.77;0.77;;;;;;;23.84;58.74;95582.50;5115118;28;20449;-55
2022/05/17 07:03:06;;;;;;;2.70;0.70;;;;;;;24.43;55.51;95568.94;5115178;28;20850;-55
2022/05/17 07:05:35;;;;;;;0.50;0.50;;;;;;;24.27;54.42;95568.16;5115258;28;20426;-55
2022/05/17 07:08:05;;;;;;;0.53;0.53;;;;;;;24.67;56.70;95565.25;5114848;28;20463;-55
2022/05/17 07:13:21;;;;;;;0.70;0.70;;;;;;;25.03;51.09;95565.72;5114688;28;20464;-54
2022/05/17 07:15:51;;;;;;;0.70;0.40;;;;;;;25.25;48.33;95562.28;5114452;28;21067;-54
2022/05/17 07:18:23;;;;;;;0.50;0.50;;;;;;;25.51;47.06;95558.19;5114556;28;20428;-54
2022/05/17 07:20:52;;;;;;;0.50;0.50;;;;;;;24.61;46.60;95488.84;5114991;28;20514;-54
2022/05/17 07:23:24;;;;;;;0.50;0.50;;;;;;;25.19;46.17;95554.81;5114737;28;20842;-55
2022/05/17 07:25:53;;;;;;;0.50;0.40;;;;;;;26.09;44.87;95550.72;5113650;28;20485;-55
2022/05/17 07:28:25;;;;;;;1.20;1.10;;;;;;;26.41;44.01;95544.69;5114856;28;20459;-55
2022/05/17 07:30:53;;;;;;;0.83;0.80;;;;;;;27.16;45.56;95541.16;5114206;28;20886;-55
2022/05/17 07:33:22;;;;;;;0.60;0.60;;;;;;;27.21;42.39;95545.47;5114428;28;20499;-56
2022/05/17 07:35:50;;;;;;;0.50;0.40;;;;;;;27.64;42.51;95534.75;5113147;28;20467;-55
2022/05/17 07:38:19;;;;;;;0.50;0.40;;;;;;;27.13;41.02;95541.09;5114295;28;20893;-56
2022/05/17 07:40:49;;;;;;;0.70;0.70;;;;;;;26.47;42.37;95543.25;5114538;28;20474;-56
2022/05/17 07:43:18;;;;;;;0.50;0.50;;;;;;;26.97;41.45;95514.06;5113862;28;20431;-56
2022/05/17 07:45:49;;;;;;;0.50;0.30;;;;;;;27.38;40.30;95531.28;5112898;28;20498;-57
2022/05/17 07:48:19;;;;;;;0.60;0.60;;;;;;;27.46;40.04;95490.22;5113647;28;20428;-57
2022/05/17 07:50:48;;;;;;;0.67;0.53;;;;;;;27.61;39.21;95530.06;5113992;28;20546;-57
2022/05/17 07:53:20;;;;;;;0.77;0.33;;;;;;;28.15;38.80;95531.41;5113752;28;20471;-58
2022/05/17 07:55:50;;;;;;;0.70;0.50;;;;;;;28.09;38.53;95528.22;5113825;28;20420;-57
2022/05/17 07:58:20;;;;;;;0.50;0.50;;;;;;;28.51;38.54;95516.91;5113726;28;20480;-57
2022/05/17 08:00:51;;;;;;;0.40;0.40;;;;;;;28.78;37.39;95525.66;5114152;28;20446;-56
2022/05/17 08:03:21;;;;;;;0.50;0.47;;;;;;;28.48;36.98;95508.69;5113773;28;21016;-57
2022/05/17 08:05:52;;;;;;;0.63;0.40;;;;;;;28.94;35.60;95521.47;5113789;28;20952;-56
2022/05/17 08:08:20;;;;;;;0.50;0.43;;;;;;;30.03;34.77;95512.91;5113314;28;20945;-57
2022/05/17 08:10:49;;;;;;;0.83;0.83;;;;;;;30.36;35.13;95502.84;5113356;28;20507;-56
2022/05/17 08:13:19;;;;;;;0.40;0.40;;;;;;;30.48;34.36;95503.22;5113659;28;20455;-57
2022/05/17 08:15:49;;;;;;;0.67;0.40;;;;;;;30.08;34.55;95512.53;5113519;28;21016;-57
2022/05/17 08:18:19;;;;;;;0.50;0.33;;;;;;;30.73;34.10;95489.50;5113751;28;20508;-57
2022/05/17 08:20:48;;;;;;;0.50;0.30;;;;;;;30.34;34.50;95500.44;5113421;28;20771;-57
2022/05/17 08:23:17;;;;;;;0.53;0.50;;;;;;;29.91;33.15;95505.09;5113562;28;20510;-57
2022/05/17 08:28:31;;;;;;;0.50;0.50;;;;;;;29.78;36.02;95498.44;5113318;28;20436;-56
2022/05/17 08:30:59;;;;;;;0.40;0.30;;;;;;;30.43;34.55;95486.41;5113113;28;20965;-55
2022/05/17 08:33:30;;;;;;;0.53;0.50;;;;;;;30.35;33.28;95484.84;5113421;28;20757;-55
2022/05/17 08:36:01;;;;;;;0.40;0.30;;;;;;;31.00;32.39;95479.66;5113125;28;20423;-56
2022/05/17 08:38:32;;;;;;;0.90;0.40;;;;;;;30.44;32.77;95479.75;5113201;28;20508;-57
2022/05/17 08:41:25;;;;;;;0.53;0.53;;;;;;;30.15;33.15;95477.03;5112942;28;20442;-56
2022/05/17 08:43:57;;;;;;;0.63;0.53;;;;;;;30.52;33.59;95464.91;5112787;28;20920;-55
2022/05/17 08:46:41;;;;;;;0.40;0.30;;;;;;;31.11;32.79;95469.47;5112761;28;20430;-55
2022/05/17 08:49:19;;;;;;;0.50;0.43;;;;;;;30.79;33.29;95460.53;5112809;28;20494;-56
2022/05/17 08:51:53;;;;;;;0.60;0.53;;;;;;;30.85;31.60;95453.50;5112600;28;20546;-56
2022/05/17 08:54:27;;;;;;;0.50;0.40;;;;;;;31.03;30.35;95451.50;5112836;28;20518;-56
2022/05/17 08:57:02;;;;;;;0.40;0.30;;;;;;;31.59;31.55;95446.97;5112978;28;20454;-56
2022/05/17 08:59:34;;;;;;;0.40;0.33;;;;;;;31.41;32.86;95442.34;5112769;28;20894;-56
2022/05/17 09:02:17;;;;;;;0.50;0.50;;;;;;;31.06;33.47;95450.72;5112660;28;20952;-56
2022/05/17 09:05:03;;;;;;;0.40;0.40;;;;;;;32.03;33.32;95438.81;5112569;28;20431;-56
2022/05/17 09:07:43;;;;;;;0.60;0.50;;;;;;;31.73;33.34;95438.63;5112363;28;20514;-56
2022/05/17 09:10:22;;;;;;;0.57;0.57;;;;;;;32.03;32.24;95427.09;5112911;28;20853;-56
2022/05/17 09:12:55;;;;;;;0.40;0.30;;;;;;;32.47;31.78;95436.09;5112495;28;20466;-56
2022/05/17 09:15:24;;;;;;;0.70;0.60;;;;;;;32.92;31.65;95441.53;5112136;28;20611;-56
2022/05/17 09:17:53;;;;;;;0.40;0.40;;;;;;;33.04;31.07;95372.38;5112616;28;20864;-56
2022/05/17 09:20:32;;;;;;;0.67;0.30;;;;;;;33.53;30.49;95431.38;5112616;28;20431;-54
2022/05/17 09:23:01;;;;;;;0.60;0.47;;;;;;;33.19;30.84;95431.44;5112364;28;21101;-55
2022/05/17 09:25:47;;;;;;;0.50;0.40;;;;;;;33.10;28.21;95428.41;5112322;28;20510;-55
2022/05/17 09:28:20;;;;;;;0.50;0.50;;;;;;;33.31;29.45;95425.38;5112337;28;20437;-55
2022/05/17 09:30:49;;;;;;;0.80;0.50;;;;;;;34.15;29.01;95417.13;5112133;28;20492;-54
2022/05/17 09:33:21;;;;;;;1.03;0.50;;;;;;;34.75;27.36;95424.31;5111940;28;20465;-54
2022/05/17 09:36:00;;;;;;;0.40;0.40;;;;;;;34.41;28.88;95408.00;5112037;28;20522;-54
2022/05/17 09:38:30;;;;;;;0.40;0.30;;;;;;;34.41;28.04;95406.03;5112335;28;20861;-53
2022/05/17 09:41:00;;;;;;;0.63;0.60;;;;;;;34.77;29.06;95408.94;5112255;28;20427;-53
2022/05/17 09:43:45;;;;;;;0.40;0.30;;;;;;;34.79;27.75;95370.72;5111935;28;20457;-53
2022/05/17 09:46:18;;;;;;;0.50;0.40;;;;;;;34.04;24.45;95391.72;5111744;28;20468;-53
2022/05/17 09:54:42;;;;;;;0.77;0.77;;;;;;;34.16;23.03;95383.69;5104663;28;20529;-53
2022/05/17 09:57:16;;;;;;;0.40;0.40;;;;;;;33.37;22.27;95382.50;5111862;28;20427;-53
2022/05/17 09:59:46;;;;;;;0.43;0.30;;;;;;;34.29;22.00;95376.38;5111029;28;20434;-54
2022/05/17 10:02:36;;;;;;;0.40;0.33;;;;;;;33.42;21.74;95378.53;5111175;28;20422;-54
2022/05/17 10:05:15;;;;;;;0.40;0.30;;;;;;;34.42;21.97;95363.56;5111556;28;20926;-53
2022/05/17 10:07:50;;;;;;;0.40;0.30;;;;;;;34.66;20.77;95366.28;5111973;28;20419;-53
2022/05/17 10:10:27;;;;;;;0.40;0.30;;;;;;;33.17;18.22;95343.16;5115576;28;20524;-54
2022/05/17 10:13:01;;;;;;;0.60;0.47;;;;;;;34.57;19.65;95344.81;5115943;28;21022;-53
2022/05/17 10:15:31;;;;;;;0.40;0.30;;;;;;;34.52;18.79;95350.78;5115324;28;20509;-54
2022/05/17 10:18:09;;;;;;;0.50;0.30;;;;;;;33.48;18.39;95317.19;5115696;28;20518;-54
2022/05/17 10:20:44;;;;;;;0.40;0.30;;;;;;;34.78;18.97;95341.66;5115556;28;20969;-54
2022/05/17 10:23:27;;;;;;;0.40;0.30;;;;;;;35.77;18.69;95322.16;5115675;28;20517;-53
2022/05/17 10:26:01;;;;;;;0.30;0.30;;;;;;;36.32;18.38;95338.50;5115514;28;20431;-53
2022/05/17 10:28:39;;;;;;;0.40;0.30;;;;;;;35.72;18.77;95339.22;5115524;28;20509;-53
2022/05/17 10:31:17;;;;;;;0.37;0.30;;;;;;;34.57;18.82;95339.31;5115898;28;20264;-53
2022/05/17 10:33:57;;;;;;;0.30;0.27;;;;;;;34.83;19.10;95332.91;5115439;28;20303;-52
2022/05/17 10:36:28;;;;;;;0.40;0.30;;;;;;;34.30;19.66;95320.16;5115512;28;20283;-54
2022/05/17 10:39:12;;;;;;;0.67;0.33;;;;;;;34.57;19.21;95328.31;5115777;28;20189;-53
2022/05/17 10:41:41;;;;;;;0.40;0.30;;;;;;;35.38;18.34;95315.56;5115434;28;20246;-54
2022/05/17 10:44:16;;;;;;;0.40;0.40;;;;;;;36.14;18.45;95316.88;5115853;28;20209;-55
2022/05/17 10:46:48;;;;;;;0.50;0.50;;;;;;;35.25;18.47;95314.69;5115223;28;20271;-55
2022/05/17 10:49:26;;;;;;;0.40;0.30;;;;;;;35.90;18.99;95309.22;5115546;28;20427;-54
2022/05/17 10:52:04;;;;;;;0.40;0.30;;;;;;;35.66;17.75;95295.63;5115171;28;20188;-54
2022/05/17 10:54:56;;;;;;;0.40;0.30;;;;;;;35.60;19.59;95299.31;5115128;28;20199;-55
2022/05/17 10:57:33;;;;;;;0.53;0.53;;;;;;;35.13;19.27;95296.06;5115323;28;20268;-55
2022/05/17 11:00:14;;;;;;;0.30;0.30;;;;;;;34.29;20.81;95295.78;5115118;28;20224;-55
2022/05/17 11:03:16;;;;;;;0.40;0.37;;;;;;;34.98;19.60;95281.03;5115011;28;20700;-55
2022/05/17 11:05:58;;;;;;;0.40;0.30;;;;;;;35.62;19.01;95285.88;5083738;28;20188;-55
2022/05/17 11:08:34;;;;;;;0.37;0.30;;;;;;;35.41;19.46;95281.63;5114831;28;20280;-55
2022/05/17 11:11:18;;;;;;;0.40;0.30;;;;;;;35.73;20.35;95269.84;5115038;28;20192;-55
2022/05/17 11:13:53;;;;;;;0.30;0.30;;;;;;;36.50;19.23;95263.50;5114341;28;20304;-54
2022/05/17 11:16:26;;;;;;;0.57;0.57;;;;;;;35.58;19.38;95268.63;5114460;28;20259;-55
2022/05/17 11:18:59;;;;;;;22.20;1.07;;;;;;;36.18;19.02;95261.59;5113846;28;20181;-54
2022/05/17 11:21:33;;;;;;;0.40;0.30;;;;;;;37.35;18.25;95256.97;5114384;28;20649;-54
2022/05/17 11:24:19;;;;;;;1.13;1.03;;;;;;;36.98;18.24;95249.47;5114887;28;20260;-54
2022/05/17 11:27:17;;;;;;;0.30;0.30;;;;;;;36.49;17.95;95246.16;5114590;28;20189;-54
2022/05/17 11:30:15;;;;;;;0.40;0.30;;;;;;;37.21;18.02;95234.53;5114441;28;20189;-55
2022/05/17 11:33:31;;;;;;;0.30;0.20;;;;;;;37.99;17.97;95236.31;5114433;28;20259;-56
2022/05/17 11:36:01;;;;;;;0.40;0.30;;;;;;;37.13;17.31;95236.75;5114363;28;20284;-55
2022/05/17 11:38:46;;;;;;;0.32;0.30;;;;;;;35.49;18.16;95178.25;5114087;28;20276;-55
2022/05/17 11:41:22;;;;;;;0.40;0.40;;;;;;;35.17;19.13;95227.09;5114567;27;20184;-55
2022/05/17 11:44:09;;;;;;;0.40;0.30;;;;;;;36.42;19.10;95231.75;5114517;28;20217;-55
2022/05/17 11:46:50;;;;;;;1.27;0.47;;;;;;;35.64;18.00;95178.69;5111552;28;20622;-54
2022/05/17 11:49:47;;;;;;;0.30;0.30;;;;;;;36.24;17.27;95223.97;5114310;28;20618;-54
2022/05/17 11:52:27;;;;;;;0.50;0.43;;;;;;;35.62;17.82;95225.22;5114009;28;20189;-54
2022/05/17 11:55:17;;;;;;;0.43;0.43;;;;;;;35.96;18.23;95219.19;5114219;28;20240;-55
2022/05/17 11:58:04;;;;;;;0.40;0.30;;;;;;;35.46;19.73;95216.94;5113960;28;20291;-54
2022/05/17 12:00:48;;;;;;;0.38;0.30;;;;;;;34.67;19.90;95217.19;5114127;28;20268;-54
2022/05/17 12:03:50;;;;;;;0.40;0.30;;;;;;;34.64;19.82;95198.75;5114179;28;20219;-54
2022/05/17 12:06:36;;;;;;;0.30;0.30;;;;;;;34.89;20.71;95204.47;5114122;28;20261;-54